Time;durP1;ratioP1;P1;durP2;ratioP2;P2;SDS_P1;SDS_P2;PMS_P1;PMS_P2;Temp;Humidity;BMP_temperature;BMP_pressure;BME280_temperature;BME280_humidity;BME280_pressure;Samples;Min_cycle;Max_cycle;Signal;HPM_P1;HPM_P2
2022/10/28 00:00:11;;;;;;;691.25;634.85;;;;;;;16.01;69.85;101762.66;700893;28;23421;-64
2022/10/28 00:00:33;;;;;;;699.40;643.00;;;;;;;15.99;69.77;101753.81;699241;28;69407;-65
2022/10/28 00:00:56;;;;;;;682.28;626.22;;;;;;;15.97;69.87;101761.34;700061;28;46671;-65
2022/10/28 00:01:18;;;;;;;678.78;622.80;;;;;;;15.98;70.15;101760.31;699354;28;69403;-64
2022/10/28 00:01:39;;;;;;;674.83;618.88;;;;;;;15.98;70.04;101759.47;699997;28;46392;-64
2022/10/28 00:02:00;;;;;;;676.30;620.30;;;;;;;15.98;70.08;101763.03;700895;28;22393;-64
2022/10/28 00:02:23;;;;;;;697.20;640.63;;;;;;;15.99;70.09;101758.44;700070;28;45208;-64
2022/10/28 00:02:44;;;;;;;719.83;662.67;;;;;;;15.99;69.98;101762.00;699728;28;46190;-64
2022/10/28 00:03:05;;;;;;;683.67;627.47;;;;;;;16.00;70.16;101762.84;700967;28;23454;-64
2022/10/28 00:03:26;;;;;;;681.97;625.85;;;;;;;16.01;70.10;101759.09;700954;28;23472;-64
2022/10/28 00:03:49;;;;;;;699.25;642.67;;;;;;;16.01;70.13;101757.19;700407;28;21553;-64
2022/10/28 00:04:11;;;;;;;688.85;632.47;;;;;;;15.99;69.96;101753.81;698339;28;92234;-64
2022/10/28 00:04:32;;;;;;;707.03;650.20;;;;;;;15.99;69.81;101747.53;700717;28;23463;-64
2022/10/28 00:04:53;;;;;;;696.33;639.83;;;;;;;15.98;69.95;101751.28;698043;28;23489;-64
2022/10/28 00:05:15;;;;;;;680.42;624.30;;;;;;;15.99;69.96;101753.00;700636;28;23420;-64
2022/10/28 00:05:36;;;;;;;689.95;633.58;;;;;;;15.98;70.04;101756.75;700011;28;46286;-64
2022/10/28 00:06:02;;;;;;;707.85;651.05;;;;;;;15.98;70.01;101748.56;700056;28;45240;-64
2022/10/28 00:06:24;;;;;;;697.63;641.05;;;;;;;15.98;69.94;101757.56;697500;28;113536;-64
2022/10/28 00:06:47;;;;;;;701.70;644.95;;;;;;;16.00;69.90;101765.56;699164;28;69070;-64
2022/10/28 00:07:08;;;;;;;691.65;635.05;;;;;;;16.00;69.75;101758.25;699542;28;44156;-64
2022/10/28 00:07:29;;;;;;;688.60;632.22;;;;;;;16.01;69.63;101759.09;700939;28;22329;-64
2022/10/28 00:07:50;;;;;;;699.75;643.08;;;;;;;16.01;69.73;101761.81;700537;28;23444;-64
2022/10/28 00:08:11;;;;;;;703.42;646.72;;;;;;;16.00;69.48;101760.97;700670;28;23425;-64
2022/10/28 00:08:32;;;;;;;680.30;624.20;;;;;;;16.00;69.81;101757.38;699463;28;44254;-64
2022/10/28 00:08:55;;;;;;;672.95;617.00;;;;;;;15.99;69.68;101753.81;700936;28;21506;-64
2022/10/28 00:09:16;;;;;;;691.38;635.08;;;;;;;15.99;69.62;101755.72;700016;28;44195;-64
2022/10/28 00:09:37;;;;;;;684.75;628.58;;;;;;;15.98;69.41;101754.84;700034;28;46342;-64
2022/10/28 00:09:58;;;;;;;679.97;623.88;;;;;;;15.97;69.72;101752.31;700988;28;21674;-64
2022/10/28 00:10:19;;;;;;;674.53;618.58;;;;;;;15.95;69.63;101749.78;700956;28;21382;-64
2022/10/28 00:10:41;;;;;;;692.03;635.63;;;;;;;15.94;69.77;101758.13;700759;28;21310;-64
2022/10/28 00:11:07;;;;;;;706.45;649.63;;;;;;;15.90;70.13;101745.94;700195;28;46332;-64
2022/10/28 00:11:31;;;;;;;687.53;631.15;;;;;;;15.94;70.17;101752.69;696832;28;138150;-64
2022/10/28 00:11:52;;;;;;;704.08;647.28;;;;;;;15.94;70.15;101741.78;699276;28;69428;-64
2022/10/28 00:12:14;;;;;;;720.38;663.30;;;;;;;15.93;70.18;101749.13;700569;28;23492;-64
2022/10/28 00:12:35;;;;;;;703.08;646.35;;;;;;;15.92;70.10;101744.69;699041;28;69462;-64
2022/10/28 00:12:56;;;;;;;700.22;643.53;;;;;;;15.91;69.69;101739.44;700287;28;22465;-64
2022/10/28 00:13:17;;;;;;;689.25;632.78;;;;;;;15.93;70.06;101745.56;700666;28;21537;-64
2022/10/28 00:13:40;;;;;;;695.75;639.08;;;;;;;15.92;70.05;101741.97;699849;28;20854;-65
2022/10/28 00:14:04;;;;;;;697.08;640.50;;;;;;;15.95;69.90;101740.78;699121;28;67282;-65
2022/10/28 00:14:25;;;;;;;692.90;636.47;;;;;;;15.94;70.03;101741.78;698204;28;90700;-65
2022/10/28 00:14:47;;;;;;;688.55;632.15;;;;;;;15.95;69.83;101741.59;699699;28;44387;-65
2022/10/28 00:15:08;;;;;;;672.00;616.10;;;;;;;15.95;70.01;101738.03;700349;28;22382;-64
2022/10/28 00:15:34;;;;;;;684.55;628.35;;;;;;;15.96;69.82;101751.47;699887;28;46304;-64
2022/10/28 00:16:03;;;;;;;686.55;630.22;;;;;;;15.96;69.71;101746.03;697595;28;115083;-64
2022/10/28 00:16:26;;;;;;;666.83;610.97;;;;;;;15.96;69.70;101746.03;696559;28;137789;-64
2022/10/28 00:16:47;;;;;;;666.65;610.75;;;;;;;15.96;69.52;101742.47;699758;28;46379;-65
2022/10/28 00:17:09;;;;;;;680.97;624.63;;;;;;;15.97;69.68;101746.88;696783;28;46377;-64
2022/10/28 00:17:31;;;;;;;697.95;641.33;;;;;;;15.96;69.85;101748.75;697288;28;44372;-64
2022/10/28 00:17:52;;;;;;;711.30;654.38;;;;;;;15.96;69.58;101742.47;697821;28;22398;-64
2022/10/28 00:18:13;;;;;;;686.88;630.63;;;;;;;15.96;69.93;101746.03;698049;28;22435;-64
2022/10/28 00:18:34;;;;;;;682.08;626.05;;;;;;;15.94;69.83;101756.28;698892;28;22409;-64
2022/10/28 00:18:58;;;;;;;686.22;630.00;;;;;;;15.93;69.67;101754.56;700008;28;44377;-64
2022/10/28 00:19:19;;;;;;;685.53;629.38;;;;;;;15.93;69.52;101760.03;699340;28;69357;-64
2022/10/28 00:19:40;;;;;;;697.47;640.92;;;;;;;15.92;69.61;101755.59;700758;28;23466;-64
2022/10/28 00:20:01;;;;;;;664.10;608.35;;;;;;;15.91;69.80;101756.66;700058;28;45246;-64
2022/10/28 00:20:22;;;;;;;692.33;635.92;;;;;;;15.91;69.84;101755.78;700822;28;22394;-64
2022/10/28 00:20:44;;;;;;;708.17;651.33;;;;;;;15.90;69.64;101751.41;700649;28;22213;-64
2022/10/28 00:21:09;;;;;;;688.55;632.17;;;;;;;15.90;69.74;101759.56;700732;28;23507;-64
2022/10/28 00:21:32;;;;;;;687.80;631.50;;;;;;;15.89;70.03;101761.44;696913;28;138403;-64
2022/10/28 00:21:53;;;;;;;699.33;642.65;;;;;;;15.88;69.83;101762.47;699954;28;47472;-64
2022/10/28 00:22:15;;;;;;;689.28;632.92;;;;;;;15.88;70.06;101757.03;701018;28;21528;-64
2022/10/28 00:22:36;;;;;;;712.72;655.83;;;;;;;15.85;69.84;101758.25;699850;28;45329;-64
2022/10/28 00:22:57;;;;;;;682.78;626.47;;;;;;;15.84;70.11;101756.53;700836;28;22417;-64
2022/10/28 00:23:19;;;;;;;701.65;644.92;;;;;;;15.85;70.06;101762.84;700730;28;22427;-64
2022/10/28 00:23:41;;;;;;;679.95;623.83;;;;;;;15.81;70.34;101756.91;700419;28;21522;-64
2022/10/28 00:24:02;;;;;;;676.25;620.22;;;;;;;15.82;69.91;101761.34;699288;28;69426;-64
2022/10/28 00:24:24;;;;;;;677.63;621.58;;;;;;;15.82;69.94;101761.34;700877;28;22408;-64
2022/10/28 00:24:45;;;;;;;701.95;645.28;;;;;;;15.82;70.26;101757.78;700838;28;23492;-64
2022/10/28 00:25:08;;;;;;;693.72;637.28;;;;;;;15.79;70.22;101758.97;699906;28;46270;-64
2022/10/28 00:25:29;;;;;;;673.17;617.25;;;;;;;15.80;70.19;101757.13;699358;28;69303;-64
2022/10/28 00:25:50;;;;;;;684.17;627.95;;;;;;;15.79;70.10;101758.16;700816;28;22338;-64
2022/10/28 00:26:13;;;;;;;690.63;634.22;;;;;;;15.78;70.54;101760.03;700845;28;22392;-64
2022/10/28 00:26:36;;;;;;;692.00;635.60;;;;;;;15.78;70.31;101765.47;698728;28;68238;-64
2022/10/28 00:26:58;;;;;;;682.60;626.33;;;;;;;15.78;70.39;101759.16;698913;28;67353;-64
2022/10/28 00:27:19;;;;;;;676.50;620.30;;;;;;;15.78;70.43;101757.31;699343;28;46343;-64
2022/10/28 00:27:42;;;;;;;672.15;616.28;;;;;;;15.78;70.24;101760.03;700645;28;21507;-64
2022/10/28 00:28:04;;;;;;;706.60;649.92;;;;;;;15.78;70.41;101759.16;699010;28;69397;-64
2022/10/28 00:28:25;;;;;;;698.40;641.78;;;;;;;15.75;70.55;101757.66;699673;28;45179;-64
2022/10/28 00:28:48;;;;;;;685.83;629.55;;;;;;;15.73;70.59;101751.53;700102;28;22201;-64
2022/10/28 00:29:12;;;;;;;717.78;660.70;;;;;;;15.75;70.63;101754.06;699237;28;67429;-64
2022/10/28 00:29:33;;;;;;;715.10;658.05;;;;;;;15.77;70.46;101754.78;698020;28;88680;-64
2022/10/28 00:29:54;;;;;;;697.40;640.83;;;;;;;15.76;70.72;101758.50;700632;28;21519;-64
2022/10/28 00:30:16;;;;;;;686.95;630.55;;;;;;;15.76;70.89;101756.59;699887;28;44362;-64
2022/10/28 00:30:39;;;;;;;700.72;643.97;;;;;;;15.77;70.73;101754.78;700583;28;21675;-64
2022/10/28 00:31:04;;;;;;;708.42;651.58;;;;;;;15.76;70.77;101751.16;699040;28;67430;-64
2022/10/28 00:31:27;;;;;;;699.13;642.42;;;;;;;15.76;70.97;101750.31;696436;28;138165;-64
2022/10/28 00:31:49;;;;;;;698.47;641.78;;;;;;;15.77;70.53;101752.88;699901;28;46718;-64
2022/10/28 00:32:11;;;;;;;710.97;653.97;;;;;;;15.79;70.86;101749.97;699369;28;69501;-64
2022/10/28 00:32:32;;;;;;;685.60;629.20;;;;;;;15.79;70.44;101756.25;699908;28;44399;-64
2022/10/28 00:32:54;;;;;;;703.08;646.25;;;;;;;15.80;70.65;101757.13;700631;28;23427;-64
2022/10/28 00:33:15;;;;;;;704.97;648.13;;;;;;;15.82;70.38;101758.59;700631;28;22414;-64
2022/10/28 00:33:36;;;;;;;704.50;647.65;;;;;;;15.83;70.54;101756.72;700226;28;21594;-64
2022/10/28 00:33:59;;;;;;;688.17;631.72;;;;;;;15.83;70.38;101762.16;700013;28;46276;-64
2022/10/28 00:34:20;;;;;;;681.40;625.10;;;;;;;15.83;70.28;101760.31;700131;28;44389;-64
2022/10/28 00:34:41;;;;;;;717.65;660.45;;;;;;;15.83;70.34;101751.28;699934;28;44383;-64
2022/10/28 00:35:03;;;;;;;706.95;650.08;;;;;;;15.83;70.21;101754.88;700804;28;23429;-64
2022/10/28 00:35:25;;;;;;;697.72;641.15;;;;;;;15.84;70.41;101751.09;700153;28;44351;-64
2022/10/28 00:35:46;;;;;;;707.33;650.55;;;;;;;15.83;70.66;101749.41;699771;28;44989;-64
2022/10/28 00:36:09;;;;;;;696.60;640.13;;;;;;;15.84;70.37;101751.09;700939;28;23447;-64
2022/10/28 00:36:32;;;;;;;703.13;646.55;;;;;;;15.85;70.37;101752.78;699468;28;69468;-64
2022/10/28 00:36:54;;;;;;;709.03;652.15;;;;;;;15.86;70.60;101750.91;700080;28;45294;-64
2022/10/28 00:37:15;;;;;;;723.72;666.20;;;;;;;15.87;70.26;101758.06;699580;28;69668;-64
2022/10/28 00:37:36;;;;;;;681.70;625.30;;;;;;;15.87;70.42;101755.31;700046;28;23421;-64
2022/10/28 00:37:57;;;;;;;695.33;638.60;;;;;;;15.88;70.20;101748.84;701226;28;21314;-64
2022/10/28 00:38:18;;;;;;;708.92;652.13;;;;;;;15.89;70.40;101749.69;701123;28;22411;-64
2022/10/28 00:38:41;;;;;;;669.75;613.90;;;;;;;15.88;70.22;101754.31;700270;28;22392;-64
2022/10/28 00:39:08;;;;;;;687.22;630.92;;;;;;;15.82;70.43;101749.59;699833;28;69415;-64
2022/10/28 00:39:29;;;;;;;694.65;638.25;;;;;;;15.85;70.25;101751.97;697444;28;137770;-64
2022/10/28 00:39:51;;;;;;;707.30;650.42;;;;;;;15.87;70.12;101758.06;701134;28;21538;-64
2022/10/28 00:40:13;;;;;;;711.20;654.38;;;;;;;15.88;70.34;101753.44;699816;28;69297;-64
2022/10/28 00:40:34;;;;;;;682.90;626.72;;;;;;;15.90;70.11;101756.84;701433;28;21542;-64
2022/10/28 00:40:55;;;;;;;692.33;635.95;;;;;;;15.91;70.11;101761.22;701208;28;23355;-64
2022/10/28 00:41:20;;;;;;;694.50;638.03;;;;;;;15.89;69.90;101755.13;700542;28;44389;-64
2022/10/28 00:41:44;;;;;;;695.65;639.10;;;;;;;15.89;70.11;101757.88;699403;28;71968;-65
2022/10/28 00:42:06;;;;;;;712.53;655.53;;;;;;;15.89;70.25;101752.41;698839;28;92254;-64
2022/10/28 00:42:27;;;;;;;705.58;648.85;;;;;;;15.87;70.25;101749.88;700289;28;45213;-64
2022/10/28 00:42:49;;;;;;;693.78;637.30;;;;;;;15.87;70.18;101749.03;700977;28;22381;-64
2022/10/28 00:43:10;;;;;;;682.65;626.45;;;;;;;15.85;70.08;101752.78;700331;28;45262;-64
2022/10/28 00:43:33;;;;;;;683.63;627.38;;;;;;;15.87;70.08;101755.31;699782;28;47679;-64
2022/10/28 00:43:57;;;;;;;694.33;637.75;;;;;;;15.85;70.30;101751.97;700212;28;44400;-64
2022/10/28 00:44:47;;;;;;;708.65;651.85;;;;;;;15.87;69.99;101749.03;698661;28;93043;-64
2022/10/28 00:45:13;;;;;;;696.22;639.83;;;;;;;15.88;70.16;101753.44;697395;28;137502;-64
2022/10/28 00:45:34;;;;;;;698.55;641.80;;;;;;;15.87;69.89;101752.59;696807;28;138530;-64
2022/10/28 00:45:56;;;;;;;698.38;641.83;;;;;;;15.87;69.81;101754.50;701365;28;23489;-64
2022/10/28 00:46:23;;;;;;;687.05;630.72;;;;;;;15.87;69.97;101754.50;699524;28;69410;-65
2022/10/28 00:46:47;;;;;;;691.92;635.53;;;;;;;15.84;69.97;101742.91;697286;28;138005;-64
2022/10/28 00:47:13;;;;;;;694.53;638.03;;;;;;;15.83;69.95;101752.13;698352;28;92295;-65
2022/10/28 00:47:44;;;;;;;686.40;630.05;;;;;;;15.78;69.94;101746.41;697153;28;136562;-64
2022/10/28 00:48:06;;;;;;;708.38;651.45;;;;;;;15.82;69.90;101752.31;694442;28;136221;-64
2022/10/28 00:48:28;;;;;;;699.17;642.58;;;;;;;15.82;70.14;101753.16;697719;28;46310;-64
2022/10/28 00:48:51;;;;;;;695.03;638.47;;;;;;;15.76;70.33;101737.53;694699;28;44539;-64
2022/10/28 00:49:16;;;;;;;707.63;650.75;;;;;;;15.81;70.12;101756.91;693718;28;85756;-64
2022/10/28 00:49:37;;;;;;;703.20;646.42;;;;;;;15.79;69.83;101752.69;692450;28;115316;-64
2022/10/28 00:50:09;;;;;;;711.83;654.97;;;;;;;15.78;70.22;101753.72;695832;28;22292;-64
2022/10/28 00:50:40;;;;;;;690.40;633.90;;;;;;;15.78;70.33;101754.59;691384;28;138111;-65
2022/10/28 00:51:02;;;;;;;706.72;649.88;;;;;;;15.76;70.54;101747.59;691874;28;137751;-65
2022/10/28 00:51:25;;;;;;;691.42;634.88;;;;;;;15.77;70.40;101747.44;691282;28;46290;-65
2022/10/28 00:51:50;;;;;;;715.67;658.60;;;;;;;15.77;70.43;101746.59;688247;28;69520;-65
2022/10/28 00:52:14;;;;;;;709.13;652.25;;;;;;;15.79;70.33;101747.25;686975;28;115251;-65
2022/10/28 00:52:36;;;;;;;700.25;643.63;;;;;;;15.77;70.56;101750.16;687684;28;92183;-65
2022/10/28 00:53:00;;;;;;;703.38;646.67;;;;;;;15.80;70.65;101746.22;689322;28;44367;-65
2022/10/28 00:53:24;;;;;;;713.50;656.60;;;;;;;15.80;70.50;101747.06;691791;28;92272;-65
2022/10/28 00:53:47;;;;;;;702.83;646.28;;;;;;;15.82;70.56;101755.88;692764;28;92145;-65
2022/10/28 00:54:08;;;;;;;707.70;651.05;;;;;;;15.82;70.50;101752.31;694325;28;68305;-65
2022/10/28 00:54:29;;;;;;;699.83;643.30;;;;;;;15.84;70.61;101752.97;695635;28;22374;-65
2022/10/28 00:54:52;;;;;;;715.72;658.65;;;;;;;15.83;70.40;101752.13;696595;28;46382;-65
2022/10/28 00:55:15;;;;;;;697.10;640.55;;;;;;;15.83;70.16;101745.81;697826;28;47173;-65
2022/10/28 00:55:36;;;;;;;699.00;642.38;;;;;;;15.82;70.41;101747.72;696702;28;65483;-65
2022/10/28 00:55:59;;;;;;;698.22;641.60;;;;;;;15.83;70.52;101743.97;698319;28;22425;-65
2022/10/28 00:56:22;;;;;;;697.38;640.88;;;;;;;15.82;70.19;101747.72;696637;28;69449;-64
2022/10/28 00:56:48;;;;;;;686.47;630.10;;;;;;;15.81;70.40;101740.56;696631;28;69526;-64
2022/10/28 00:57:12;;;;;;;696.30;639.55;;;;;;;15.82;70.43;101745.00;693697;28;137170;-64
2022/10/28 00:57:35;;;;;;;695.20;638.60;;;;;;;15.82;70.39;101741.44;696855;28;69410;-64
2022/10/28 00:57:58;;;;;;;696.22;639.63;;;;;;;15.82;70.57;101744.16;696778;28;67605;-64
2022/10/28 00:58:22;;;;;;;710.58;653.72;;;;;;;15.82;70.49;101736.00;698868;28;14882;-64
2022/10/28 00:58:44;;;;;;;713.33;656.38;;;;;;;15.82;70.50;101736.81;696198;28;69438;-64
2022/10/28 00:59:08;;;;;;;709.55;652.72;;;;;;;15.82;70.25;101738.72;697041;28;68281;-64
2022/10/28 00:59:33;;;;;;;692.13;635.65;;;;;;;15.83;70.32;101734.94;696080;28;92466;-64
2022/10/28 00:59:54;;;;;;;693.15;636.72;;;;;;;15.83;70.14;101743.09;696098;28;92285;-64
2022/10/28 01:00:15;;;;;;;684.88;628.70;;;;;;;15.84;70.50;101734.75;698563;28;23480;-64
2022/10/28 01:00:37;;;;;;;683.00;626.90;;;;;;;15.84;70.11;101740.19;697617;28;44360;-64
2022/10/28 01:01:00;;;;;;;679.67;623.53;;;;;;;15.85;70.47;101738.34;698613;28;23714;-63
2022/10/28 01:01:21;;;;;;;671.05;615.17;;;;;;;15.87;70.37;101735.41;696249;28;92083;-64
2022/10/28 01:01:42;;;;;;;703.60;646.83;;;;;;;15.85;70.28;101736.44;698471;28;21470;-64
2022/10/28 01:02:04;;;;;;;719.03;661.95;;;;;;;15.84;70.42;101734.75;698485;28;21388;-64
2022/10/28 01:02:25;;;;;;;696.08;639.65;;;;;;;15.88;70.22;101737.97;698756;28;23439;-64
2022/10/28 01:02:48;;;;;;;700.45;643.80;;;;;;;15.89;70.23;101736.06;698212;28;22399;-64
2022/10/28 01:03:10;;;;;;;690.28;633.80;;;;;;;15.89;70.02;101731.47;696993;28;69439;-65
2022/10/28 01:03:31;;;;;;;685.90;629.58;;;;;;;15.90;70.22;101740.50;697427;28;44399;-64
2022/10/28 01:03:53;;;;;;;693.25;636.75;;;;;;;15.90;70.12;101737.78;698473;28;22403;-64
2022/10/28 01:04:16;;;;;;;683.95;627.72;;;;;;;15.90;70.11;101735.03;697696;28;46351;-65
2022/10/28 01:04:38;;;;;;;708.78;651.88;;;;;;;15.91;70.29;101737.59;696743;28;69496;-65
2022/10/28 01:04:59;;;;;;;728.50;671.13;;;;;;;15.90;70.18;101738.59;697755;28;46454;-65
2022/10/28 01:05:22;;;;;;;701.30;644.70;;;;;;;15.91;69.86;101728.53;698632;28;22291;-64
2022/10/28 01:05:46;;;;;;;711.83;654.92;;;;;;;15.91;69.92;101734.00;696887;28;67486;-64
2022/10/28 01:06:08;;;;;;;693.17;636.80;;;;;;;15.90;70.10;101740.50;696174;28;90304;-64
2022/10/28 01:06:29;;;;;;;696.03;639.58;;;;;;;15.89;69.86;101736.91;697806;28;46328;-64
2022/10/28 01:06:51;;;;;;;700.47;643.88;;;;;;;15.89;69.93;101733.34;699058;28;926;-64
2022/10/28 01:07:14;;;;;;;698.22;641.65;;;;;;;15.88;70.24;101735.25;698358;28;22417;-64
2022/10/28 01:07:35;;;;;;;743.15;685.45;;;;;;;15.88;70.38;101729.78;696881;28;69387;-64
2022/10/28 01:08:00;;;;;;;712.30;655.40;;;;;;;15.88;70.31;101729.78;698542;28;22391;-64
2022/10/28 01:08:22;;;;;;;690.15;633.78;;;;;;;15.88;70.37;101731.66;691855;28;136413;-64
2022/10/28 01:08:43;;;;;;;689.20;632.85;;;;;;;15.87;70.24;101733.53;695352;28;23541;-64
2022/10/28 01:09:04;;;;;;;702.33;645.53;;;;;;;15.86;70.19;101731.84;695890;28;22421;-64
2022/10/28 01:09:25;;;;;;;701.42;644.70;;;;;;;15.88;70.35;101728.91;699319;28;1207;-64
2022/10/28 01:09:47;;;;;;;712.20;655.33;;;;;;;15.89;70.44;101727.91;698461;28;23569;-64
2022/10/28 01:10:09;;;;;;;710.30;653.47;;;;;;;15.88;70.19;101732.50;697047;28;70136;-64
2022/10/28 01:10:52;;;;;;;707.83;651.05;;;;;;;15.89;70.34;101730.63;697846;28;44358;-64
2022/10/28 01:11:50;;;;;;;717.08;660.22;;;;;;;15.87;70.17;101728.09;694752;28;137200;-64
2022/10/28 01:12:16;;;;;;;696.03;639.60;;;;;;;15.88;70.23;101728.91;694682;28;137205;-64
2022/10/28 01:12:47;;;;;;;693.95;637.47;;;;;;;15.88;69.97;101734.38;694441;28;138050;-64
2022/10/28 01:13:12;;;;;;;688.38;632.03;;;;;;;15.87;69.97;101736.25;694551;28;135782;-64
2022/10/28 01:13:39;;;;;;;686.85;630.55;;;;;;;15.88;70.27;101737.09;694893;28;115249;-64
2022/10/28 01:14:16;;;;;;;703.53;646.72;;;;;;;15.87;70.25;101738.16;694465;28;137913;-64
2022/10/28 01:14:47;;;;;;;709.47;652.45;;;;;;;15.85;70.34;101733.72;694386;28;137491;-64
2022/10/28 01:15:13;;;;;;;721.05;663.92;;;;;;;15.84;70.09;101734.75;694182;28;137575;-64
2022/10/28 01:15:41;;;;;;;690.90;634.50;;;;;;;15.84;70.21;101742.91;694497;28;138496;-65
2022/10/28 01:16:12;;;;;;;683.33;627.10;;;;;;;15.83;70.47;101738.53;694419;28;137972;-64
2022/10/28 01:16:42;;;;;;;712.50;655.60;;;;;;;15.83;70.18;101741.25;694566;28;137758;-64
2022/10/28 01:17:24;;;;;;;684.60;628.15;;;;;;;15.79;70.28;101731.75;693935;28;137808;-64
2022/10/28 01:17:53;;;;;;;696.10;639.53;;;;;;;15.79;70.27;101737.19;693510;28;137458;-65
2022/10/28 01:18:22;;;;;;;703.42;646.67;;;;;;;15.78;70.50;101734.66;694006;28;137300;-65
2022/10/28 01:18:48;;;;;;;708.33;651.55;;;;;;;15.78;70.52;101734.66;693649;28;137645;-64
2022/10/28 01:19:28;;;;;;;688.50;632.30;;;;;;;15.77;70.98;101735.72;694379;28;136237;-64
2022/10/28 01:20:36;;;;;;;712.83;656.03;;;;;;;15.77;71.12;101735.72;694312;28;137221;-64
2022/10/28 01:21:32;;;;;;;674.40;618.38;;;;;;;15.77;71.08;101741.16;694840;28;126004;-64
2022/10/28 01:22:05;;;;;;;694.70;638.22;;;;;;;15.79;70.93;101737.19;685774;28;137808;-64
2022/10/28 01:22:30;;;;;;;720.22;663.13;;;;;;;15.81;71.11;101735.13;689671;28;160685;-64
2022/10/28 01:22:57;;;;;;;707.22;650.42;;;;;;;15.82;71.05;101733.25;693376;28;93026;-64
2022/10/28 01:23:23;;;;;;;707.22;650.45;;;;;;;15.83;70.96;101735.78;694073;28;137675;-64
2022/10/28 01:23:55;;;;;;;703.63;646.90;;;;;;;15.85;70.84;101736.44;693622;28;137926;-64
2022/10/28 01:24:32;;;;;;;703.25;646.60;;;;;;;15.86;70.98;101734.56;696947;28;61581;-64
2022/10/28 01:25:08;;;;;;;683.95;627.72;;;;;;;15.85;70.85;101733.72;694030;28;136037;-64
2022/10/28 01:26:21;;;;;;;710.10;653.30;;;;;;;15.85;70.66;101732.88;692591;28;137802;-64
2022/10/28 01:27:11;;;;;;;701.13;644.40;;;;;;;15.87;70.54;101728.09;689363;28;158869;-64
2022/10/28 01:28:06;;;;;;;698.47;641.80;;;;;;;15.88;70.41;101728.91;693276;28;160984;-64
2022/10/28 01:28:50;;;;;;;731.85;674.55;;;;;;;15.88;70.59;101732.50;691800;28;137371;-64
2022/10/28 01:29:44;;;;;;;691.33;635.00;;;;;;;15.88;70.66;101734.38;690926;28;157296;-64
2022/10/28 01:30:10;;;;;;;676.63;620.45;;;;;;;15.88;70.64;101724.34;690944;28;160579;-64
2022/10/28 01:30:39;;;;;;;673.78;617.70;;;;;;;15.86;70.40;101731.84;691621;28;139174;-64
2022/10/28 01:31:14;;;;;;;673.95;617.85;;;;;;;15.85;70.73;101731.00;691647;28;137915;-64
2022/10/28 01:31:42;;;;;;;680.97;624.78;;;;;;;15.84;70.57;101723.00;691534;28;135974;-64
2022/10/28 01:32:09;;;;;;;666.75;610.85;;;;;;;15.87;70.39;101733.53;691611;28;136325;-64
2022/10/28 01:32:32;;;;;;;707.53;650.65;;;;;;;15.87;70.61;101728.09;691732;28;137912;-64
2022/10/28 01:33:02;;;;;;;694.03;637.42;;;;;;;15.86;70.55;101723.66;692923;28;92629;-64
2022/10/28 01:33:27;;;;;;;689.53;633.03;;;;;;;15.87;70.39;101719.06;691625;28;138167;-64
2022/10/28 01:33:51;;;;;;;681.38;625.15;;;;;;;15.87;70.44;101729.97;690541;28;157763;-64
2022/10/28 01:34:18;;;;;;;673.00;617.00;;;;;;;15.85;70.70;101724.72;693311;28;92283;-64
2022/10/28 01:34:47;;;;;;;690.78;634.38;;;;;;;15.84;70.36;101721.13;693013;28;160763;-64
2022/10/28 01:35:13;;;;;;;690.20;633.88;;;;;;;15.83;70.29;101722.19;693579;28;160788;-64
2022/10/28 01:35:40;;;;;;;698.63;642.05;;;;;;;15.83;70.78;101724.03;694301;28;136419;-64
2022/10/28 01:36:08;;;;;;;695.17;638.70;;;;;;;15.83;70.43;101718.59;694135;28;137976;-64
2022/10/28 01:36:33;;;;;;;691.78;635.42;;;;;;;15.81;70.69;101724.22;694493;28;138195;-64
2022/10/28 01:36:58;;;;;;;685.42;629.17;;;;;;;15.79;70.33;101720.03;693741;28;139241;-65
2022/10/28 01:37:27;;;;;;;685.03;628.80;;;;;;;15.80;70.34;101725.28;694301;28;137920;-64
2022/10/28 01:37:54;;;;;;;701.22;644.63;;;;;;;15.78;70.54;101724.63;694261;28;137812;-64
2022/10/28 01:38:24;;;;;;;706.03;649.20;;;;;;;15.77;70.64;101720.19;693853;28;138480;-64
2022/10/28 01:38:49;;;;;;;695.25;638.72;;;;;;;15.77;70.48;101725.66;693533;28;137803;-64
2022/10/28 01:39:15;;;;;;;696.58;640.03;;;;;;;15.75;70.41;101730.41;695231;28;115157;-65
2022/10/28 01:39:44;;;;;;;701.00;644.33;;;;;;;15.73;70.59;101723.47;694342;28;136515;-65
2022/10/28 01:40:10;;;;;;;691.28;634.88;;;;;;;15.73;70.47;101727.00;694445;28;137834;-65
2022/10/28 01:40:34;;;;;;;697.85;641.33;;;;;;;15.71;70.61;101725.53;694467;28;137534;-64
2022/10/28 01:41:02;;;;;;;721.83;664.67;;;;;;;15.73;70.73;101721.56;695851;28;92148;-64
2022/10/28 01:41:28;;;;;;;689.60;633.30;;;;;;;15.71;70.60;101731.81;695079;28;119198;-64
2022/10/28 01:41:54;;;;;;;715.25;658.25;;;;;;;15.70;70.72;101727.38;694309;28;138121;-64
2022/10/28 01:42:24;;;;;;;720.30;663.25;;;;;;;15.71;70.86;101729.09;694441;28;138525;-64
2022/10/28 01:42:51;;;;;;;695.00;638.45;;;;;;;15.67;70.57;101731.34;694199;28;136051;-64
2022/10/28 01:43:15;;;;;;;706.95;650.03;;;;;;;15.68;70.75;101727.56;693468;28;159249;-64
2022/10/28 01:43:41;;;;;;;700.80;644.20;;;;;;;15.67;70.85;101715.00;695346;28;92261;-64
2022/10/28 01:44:07;;;;;;;704.70;648.00;;;;;;;15.67;70.78;101722.31;693999;28;138756;-64
2022/10/28 01:44:32;;;;;;;716.80;659.80;;;;;;;15.67;71.06;101725.91;691348;28;137894;-64
2022/10/28 01:45:01;;;;;;;703.17;646.50;;;;;;;15.66;70.99;101715.19;693348;28;90760;-64
2022/10/28 01:45:25;;;;;;;709.90;653.17;;;;;;;15.65;71.28;101718.94;691710;28;138688;-64
2022/10/28 01:45:53;;;;;;;695.25;638.85;;;;;;;15.64;71.17;101720.81;693523;28;92244;-64
2022/10/28 01:46:17;;;;;;;688.53;632.38;;;;;;;15.62;71.23;101711.97;694524;28;137624;-64
2022/10/28 01:46:42;;;;;;;701.35;644.75;;;;;;;15.63;71.32;101719.13;695068;28;115284;-64
2022/10/28 01:47:09;;;;;;;664.97;608.92;;;;;;;15.63;71.21;101710.97;694747;28;113329;-64
2022/10/28 01:47:34;;;;;;;677.25;621.08;;;;;;;15.64;71.48;101711.78;694035;28;138986;-64
2022/10/28 01:47:59;;;;;;;691.67;635.15;;;;;;;15.63;71.39;101710.97;694909;28;115292;-64
2022/10/28 01:48:23;;;;;;;692.47;635.95;;;;;;;15.60;71.34;101702.31;694312;28;138144;-64
2022/10/28 01:48:46;;;;;;;684.17;627.88;;;;;;;15.65;71.85;101710.78;696158;28;69411;-64
2022/10/28 01:49:10;;;;;;;680.58;624.40;;;;;;;15.66;71.50;101712.47;696779;28;69394;-64
2022/10/28 01:49:38;;;;;;;672.90;616.95;;;;;;;15.65;71.57;101711.59;695185;28;116042;-64
2022/10/28 01:50:04;;;;;;;681.10;624.97;;;;;;;15.66;71.39;101715.19;694381;28;136302;-64
2022/10/28 01:50:31;;;;;;;713.28;656.38;;;;;;;15.68;71.64;101713.13;697160;28;61517;-64
2022/10/28 01:50:57;;;;;;;698.08;641.47;;;;;;;15.68;71.49;101707.69;695042;28;115175;-64
2022/10/28 01:51:23;;;;;;;705.33;648.55;;;;;;;15.68;71.38;101711.22;694445;28;136298;-64
2022/10/28 01:51:47;;;;;;;684.03;627.78;;;;;;;15.70;71.28;101708.31;694382;28;136252;-64
2022/10/28 01:52:11;;;;;;;688.20;631.88;;;;;;;15.71;71.20;101707.31;696709;28;69397;-64